Time;durP1;ratioP1;P1;durP2;ratioP2;P2;SDS_P1;SDS_P2;PMS_P1;PMS_P2;Temp;Humidity;BMP_temperature;BMP_pressure;BME280_temperature;BME280_humidity;BME280_pressure;Samples;Min_cycle;Max_cycle;Signal;HPM_P1;HPM_P2
2023/05/09 00:00:27;;;;;;;0.73;0.47;;;14.90;99.90;;;;;;5092185;28;20207;-59
2023/05/09 00:02:53;;;;;;;0.00;0.00;;;14.90;99.90;;;;;;5091466;28;20180;-60
2023/05/09 00:05:19;;;;;;;0.00;0.00;;;14.80;99.90;;;;;;5092199;28;20246;-60
2023/05/09 00:07:45;;;;;;;0.00;0.00;;;14.80;99.90;;;;;;5092000;28;20646;-60
2023/05/09 00:10:11;;;;;;;0.00;0.00;;;14.70;99.90;;;;;;5091838;28;20184;-60
2023/05/09 00:12:36;;;;;;;0.00;0.00;;;14.70;99.90;;;;;;5091592;28;20180;-60
2023/05/09 00:15:02;;;;;;;0.00;0.00;;;14.70;99.90;;;;;;5091741;28;20192;-60
2023/05/09 00:17:28;;;;;;;0.00;0.00;;;14.70;99.90;;;;;;5091305;28;20230;-60
2023/05/09 00:19:54;;;;;;;0.22;0.22;;;14.70;99.90;;;;;;5091354;28;20169;-60
2023/05/09 00:22:20;;;;;;;0.10;0.10;;;14.70;99.90;;;;;;5091541;28;20195;-60
2023/05/09 00:24:46;;;;;;;0.00;0.00;;;14.60;99.90;;;;;;5091848;28;20361;-59
2023/05/09 00:27:12;;;;;;;0.00;0.00;;;14.60;99.90;;;;;;5091427;28;20224;-60
2023/05/09 00:29:37;;;;;;;0.00;0.00;;;14.60;99.90;;;;;;5091880;28;20258;-59
2023/05/09 00:32:03;;;;;;;0.00;0.00;;;14.60;99.90;;;;;;5091264;28;20221;-60
2023/05/09 00:34:29;;;;;;;0.00;0.00;;;14.60;99.90;;;;;;5091838;28;20271;-59
2023/05/09 00:36:54;;;;;;;0.15;0.15;;;14.60;99.90;;;;;;5091425;28;20216;-60
2023/05/09 00:39:20;;;;;;;0.30;0.08;;;14.60;99.90;;;;;;5091348;28;20179;-59
2023/05/09 00:41:45;;;;;;;0.00;0.00;;;14.50;99.90;;;;;;5091935;28;20180;-60
2023/05/09 00:44:11;;;;;;;0.00;0.00;;;14.60;99.90;;;;;;5091690;28;20176;-60
2023/05/09 00:46:37;;;;;;;0.00;0.00;;;14.60;99.90;;;;;;5091982;28;20191;-60
2023/05/09 00:49:03;;;;;;;0.00;0.00;;;14.60;99.90;;;;;;5091499;28;20169;-60
2023/05/09 00:51:31;;;;;;;0.00;0.00;;;14.60;99.90;;;;;;5090049;28;20183;-60
2023/05/09 00:53:57;;;;;;;0.13;0.13;;;14.60;99.90;;;;;;5091676;28;20164;-60
2023/05/09 00:56:22;;;;;;;0.00;0.00;;;14.60;99.90;;;;;;5091619;28;20215;-60
2023/05/09 00:58:48;;;;;;;0.00;0.00;;;14.60;99.90;;;;;;5091533;28;20308;-60
2023/05/09 01:01:15;;;;;;;0.00;0.00;;;14.60;99.90;;;;;;5091218;28;20179;-60
2023/05/09 01:03:41;;;;;;;0.03;0.03;;;14.60;99.90;;;;;;5091593;28;20263;-60
2023/05/09 01:06:12;;;;;;;0.00;0.00;;;14.60;99.90;;;;;;5091356;28;20275;-60
2023/05/09 01:08:46;;;;;;;0.20;0.20;;;14.70;99.90;;;;;;5091521;28;20184;-60
2023/05/09 01:11:42;;;;;;;0.00;0.00;;;14.70;99.90;;;;;;5100340;28;20194;-60
2023/05/09 01:14:29;;;;;;;0.00;0.00;;;14.70;99.90;;;;;;5091221;28;20186;-60
2023/05/09 01:17:12;;;;;;;0.00;0.00;;;14.70;99.90;;;;;;5091115;28;20211;-60
2023/05/09 01:20:04;;;;;;;0.30;0.30;;;14.70;99.90;;;;;;5090106;28;20564;-60
2023/05/09 01:22:34;;;;;;;0.00;0.00;;;14.70;99.90;;;;;;5080883;28;20573;-60
2023/05/09 01:25:18;;;;;;;0.00;0.00;;;14.80;99.90;;;;;;5090697;28;20307;-60
2023/05/09 01:27:56;;;;;;;0.20;0.20;;;14.80;99.90;;;;;;5091099;28;20184;-60
2023/05/09 01:30:24;;;;;;;0.00;0.00;;;14.80;99.90;;;;;;5080528;28;20274;-60
2023/05/09 01:32:52;;;;;;;0.00;0.00;;;14.90;99.90;;;;;;5090575;28;20573;-59
2023/05/09 01:35:22;;;;;;;0.10;0.10;;;14.90;99.90;;;;;;5090982;28;20187;-59
2023/05/09 01:37:49;;;;;;;0.00;0.00;;;14.90;99.90;;;;;;5081523;28;20717;-60
2023/05/09 01:40:19;;;;;;;0.00;0.00;;;14.90;99.90;;;;;;5090938;28;20183;-60
2023/05/09 01:42:47;;;;;;;0.00;0.00;;;14.90;99.90;;;;;;5091171;28;20184;-60
2023/05/09 01:45:14;;;;;;;0.10;0.10;;;14.90;99.90;;;;;;5090858;28;20877;-60
2023/05/09 01:47:40;;;;;;;0.00;0.00;;;14.90;99.90;;;;;;5090595;28;20187;-60
2023/05/09 01:50:09;;;;;;;0.00;0.00;;;14.90;99.90;;;;;;5090668;28;20187;-60
2023/05/09 01:52:36;;;;;;;0.00;0.00;;;14.90;99.90;;;;;;5091001;28;20191;-60
2023/05/09 01:55:03;;;;;;;0.00;0.00;;;14.90;99.90;;;;;;5090810;28;20183;-60
2023/05/09 01:57:29;;;;;;;0.00;0.00;;;14.90;99.90;;;;;;5090406;28;20215;-60
2023/05/09 01:59:57;;;;;;;0.00;0.00;;;14.90;99.90;;;;;;5090653;28;20176;-60
2023/05/09 02:02:27;;;;;;;0.22;0.22;;;14.90;99.90;;;;;;5090779;28;20195;-60
2023/05/09 02:04:55;;;;;;;0.00;0.00;;;14.90;99.90;;;;;;5090828;28;20233;-60
2023/05/09 02:07:23;;;;;;;0.00;0.00;;;14.90;99.90;;;;;;5090652;28;20202;-60
2023/05/09 02:09:50;;;;;;;0.03;0.03;;;14.90;99.90;;;;;;5090456;28;20203;-60
2023/05/09 02:12:16;;;;;;;0.08;0.08;;;14.90;99.90;;;;;;5090620;28;20184;-60
2023/05/09 02:14:42;;;;;;;0.00;0.00;;;14.90;99.90;;;;;;5090700;28;20317;-60
2023/05/09 02:17:09;;;;;;;0.00;0.00;;;14.90;99.90;;;;;;5090404;28;20223;-60
2023/05/09 02:19:35;;;;;;;0.00;0.00;;;15.00;99.90;;;;;;5090536;28;20860;-60
2023/05/09 02:22:03;;;;;;;0.08;0.08;;;15.00;99.90;;;;;;5106155;28;20184;-60
2023/05/09 02:24:31;;;;;;;0.25;0.25;;;15.00;99.90;;;;;;5090425;28;20248;-60
2023/05/09 02:26:57;;;;;;;0.20;0.20;;;15.00;99.90;;;;;;5090564;28;20218;-60
2023/05/09 02:29:29;;;;;;;0.08;0.08;;;15.00;99.90;;;;;;5090857;28;20657;-60
2023/05/09 02:31:58;;;;;;;0.00;0.00;;;15.00;99.90;;;;;;5090387;28;20195;-59
2023/05/09 02:34:24;;;;;;;0.03;0.03;;;14.90;99.90;;;;;;5090677;28;20176;-60
2023/05/09 02:36:50;;;;;;;0.00;0.00;;;14.90;99.90;;;;;;5090335;28;20215;-60
2023/05/09 02:39:16;;;;;;;0.05;0.05;;;14.90;99.90;;;;;;5090593;28;20216;-60
2023/05/09 02:41:48;;;;;;;0.43;0.43;;;14.90;99.90;;;;;;5090416;28;20225;-60
2023/05/09 02:44:13;;;;;;;0.00;0.00;;;14.90;99.90;;;;;;5094429;28;20188;-60
2023/05/09 02:46:39;;;;;;;0.00;0.00;;;14.90;99.90;;;;;;5094303;28;20718;-60
2023/05/09 02:49:04;;;;;;;0.00;0.00;;;14.80;99.90;;;;;;5094255;28;20180;-60
2023/05/09 02:51:30;;;;;;;0.00;0.00;;;14.80;99.90;;;;;;5094009;28;20557;-60
2023/05/09 02:53:56;;;;;;;0.00;0.00;;;14.70;99.90;;;;;;5093953;28;20172;-60
2023/05/09 02:56:21;;;;;;;0.00;0.00;;;14.70;99.90;;;;;;5093995;28;20728;-60
2023/05/09 02:58:50;;;;;;;0.10;0.10;;;14.70;99.90;;;;;;5094108;28;20223;-60
2023/05/09 03:01:17;;;;;;;0.00;0.00;;;14.70;99.90;;;;;;5093968;28;20709;-60
2023/05/09 03:03:42;;;;;;;0.32;0.10;;;14.70;99.90;;;;;;5093605;28;20226;-59
2023/05/09 03:06:08;;;;;;;0.08;0.08;;;14.70;99.90;;;;;;5093754;28;20208;-60
2023/05/09 03:08:33;;;;;;;0.00;0.00;;;14.70;99.90;;;;;;5093955;28;20176;-60
2023/05/09 03:10:59;;;;;;;0.00;0.00;;;14.70;99.90;;;;;;5093698;28;20185;-60
2023/05/09 03:13:24;;;;;;;0.00;0.00;;;14.70;99.90;;;;;;5093841;28;20683;-60
2023/05/09 03:15:50;;;;;;;0.20;0.20;;;14.70;99.90;;;;;;5093894;28;20211;-60
2023/05/09 03:18:15;;;;;;;0.63;0.13;;;14.70;99.90;;;;;;5093274;28;20235;-60
2023/05/09 03:20:41;;;;;;;0.00;0.00;;;14.70;99.90;;;;;;5097402;28;20373;-59
2023/05/09 03:23:07;;;;;;;0.00;0.00;;;14.70;99.90;;;;;;5092512;28;20195;-60
2023/05/09 03:25:32;;;;;;;0.00;0.00;;;14.70;99.90;;;;;;5093669;28;20264;-60
2023/05/09 03:27:58;;;;;;;0.00;0.00;;;14.70;99.90;;;;;;5093487;28;20240;-61
2023/05/09 03:30:23;;;;;;;0.10;0.10;;;14.70;99.90;;;;;;5093614;28;20572;-59
2023/05/09 03:32:49;;;;;;;0.00;0.00;;;14.70;99.90;;;;;;5090005;28;20271;-60
2023/05/09 03:35:14;;;;;;;0.25;0.20;;;14.70;99.90;;;;;;5086473;28;20180;-62
2023/05/09 03:37:40;;;;;;;0.20;0.17;;;14.70;99.90;;;;;;5093210;28;20219;-61
2023/05/09 03:40:06;;;;;;;0.00;0.00;;;14.70;99.90;;;;;;5092745;28;20616;-60
2023/05/09 03:42:31;;;;;;;0.05;0.05;;;14.60;99.90;;;;;;5092820;28;20184;-60
2023/05/09 03:44:57;;;;;;;0.05;0.05;;;14.70;99.90;;;;;;5093159;28;20180;-59
2023/05/09 03:47:23;;;;;;;0.05;0.05;;;14.70;99.90;;;;;;5093219;28;20180;-59
2023/05/09 03:49:48;;;;;;;0.00;0.00;;;14.70;99.90;;;;;;5092653;28;20176;-59
2023/05/09 03:52:14;;;;;;;0.00;0.00;;;14.70;99.90;;;;;;5092467;28;20187;-60
2023/05/09 03:54:39;;;;;;;0.00;0.00;;;14.70;99.90;;;;;;5091268;28;20267;-60
2023/05/09 03:57:05;;;;;;;0.00;0.00;;;14.70;99.90;;;;;;5092856;28;20239;-60
2023/05/09 03:59:31;;;;;;;0.00;0.00;;;14.70;99.90;;;;;;5092851;28;20218;-61
2023/05/09 04:01:57;;;;;;;0.00;0.00;;;14.70;99.90;;;;;;5092205;28;20234;-62
2023/05/09 04:04:22;;;;;;;0.00;0.00;;;14.80;99.90;;;;;;5091704;28;20384;-60
2023/05/09 04:06:48;;;;;;;0.00;0.00;;;14.80;99.90;;;;;;5092534;28;20183;-60
2023/05/09 04:09:13;;;;;;;0.10;0.10;;;14.80;99.90;;;;;;5092175;28;20203;-61
2023/05/09 04:11:39;;;;;;;0.00;0.00;;;14.80;99.90;;;;;;5092566;28;20189;-61
2023/05/09 04:14:05;;;;;;;0.00;0.00;;;14.80;99.90;;;;;;5092156;28;20180;-61
2023/05/09 04:16:32;;;;;;;0.05;0.05;;;14.80;99.90;;;;;;5092404;28;20694;-61
2023/05/09 04:18:57;;;;;;;0.05;0.05;;;14.80;99.90;;;;;;5092248;28;20248;-60
2023/05/09 04:21:23;;;;;;;0.00;0.00;;;14.80;99.90;;;;;;5106809;28;20607;-60
2023/05/09 04:23:48;;;;;;;0.10;0.10;;;14.80;99.90;;;;;;5112662;28;20298;-61
2023/05/09 04:26:14;;;;;;;0.00;0.00;;;14.90;99.90;;;;;;5112631;28;20247;-60
2023/05/09 04:28:40;;;;;;;0.25;0.25;;;14.90;99.90;;;;;;5112749;28;20175;-60
2023/05/09 04:31:05;;;;;;;0.65;0.65;;;14.90;99.90;;;;;;5112555;28;20296;-60
2023/05/09 04:33:31;;;;;;;0.10;0.10;;;14.90;99.90;;;;;;5112821;28;20171;-61
2023/05/09 04:35:56;;;;;;;0.43;0.43;;;14.90;99.90;;;;;;5112306;28;20207;-60
2023/05/09 04:38:22;;;;;;;0.15;0.15;;;14.90;99.90;;;;;;5112680;28;20622;-60
2023/05/09 04:40:48;;;;;;;0.00;0.00;;;14.90;99.90;;;;;;5112488;28;20567;-61
2023/05/09 04:43:13;;;;;;;0.05;0.05;;;14.90;99.90;;;;;;5112107;28;20172;-60
2023/05/09 04:45:39;;;;;;;0.00;0.00;;;14.90;99.90;;;;;;5112074;28;20566;-60
2023/05/09 04:48:05;;;;;;;0.32;0.32;;;15.00;99.90;;;;;;5112046;28;20167;-60
2023/05/09 04:50:30;;;;;;;0.20;0.20;;;15.00;99.90;;;;;;5112185;28;20648;-60
2023/05/09 04:52:56;;;;;;;0.00;0.00;;;15.00;99.90;;;;;;5111870;28;20160;-62
2023/05/09 04:55:21;;;;;;;0.22;0.13;;;15.00;99.90;;;;;;5112071;28;20262;-62
2023/05/09 04:57:47;;;;;;;0.00;0.00;;;15.00;99.90;;;;;;5111828;28;20615;-62
2023/05/09 05:00:13;;;;;;;0.00;0.00;;;15.10;99.90;;;;;;5111696;28;20176;-62
2023/05/09 05:02:39;;;;;;;0.05;0.05;;;15.10;99.90;;;;;;5111572;28;20211;-62
2023/05/09 05:05:05;;;;;;;0.00;0.00;;;15.10;99.90;;;;;;5111363;28;20207;-62
2023/05/09 05:07:30;;;;;;;0.00;0.00;;;15.20;99.90;;;;;;5111294;28;20176;-62
2023/05/09 05:09:56;;;;;;;0.10;0.08;;;15.30;99.90;;;;;;5111541;28;20186;-61
2023/05/09 05:12:21;;;;;;;0.00;0.00;;;15.30;99.90;;;;;;5111666;28;20179;-62
2023/05/09 05:14:47;;;;;;;0.00;0.00;;;15.30;99.90;;;;;;5111574;28;20179;-62
2023/05/09 05:17:12;;;;;;;0.03;0.03;;;15.40;99.90;;;;;;5088309;28;20216;-62
2023/05/09 05:19:38;;;;;;;0.20;0.20;;;15.40;99.90;;;;;;5070862;28;20332;-62
2023/05/09 05:22:04;;;;;;;0.00;0.00;;;15.50;99.90;;;;;;5111051;28;20221;-62
2023/05/09 05:24:29;;;;;;;0.00;0.00;;;15.50;99.90;;;;;;5111250;28;20215;-62
2023/05/09 05:26:55;;;;;;;0.00;0.00;;;15.50;99.90;;;;;;5111455;28;20190;-61
2023/05/09 05:29:20;;;;;;;0.00;0.00;;;15.60;99.90;;;;;;5111511;28;20266;-61
2023/05/09 05:31:46;;;;;;;0.00;0.00;;;15.60;99.90;;;;;;5111526;28;20258;-61
2023/05/09 05:34:11;;;;;;;0.00;0.00;;;15.70;99.90;;;;;;5111469;28;20685;-62
2023/05/09 05:36:37;;;;;;;0.00;0.00;;;15.70;99.90;;;;;;5111282;28;20673;-62
2023/05/09 05:39:03;;;;;;;0.05;0.05;;;15.80;99.90;;;;;;5111347;28;20522;-62
2023/05/09 05:41:28;;;;;;;0.00;0.00;;;15.90;99.90;;;;;;5111384;28;20160;-62
2023/05/09 05:43:54;;;;;;;0.00;0.00;;;15.90;99.90;;;;;;5111304;28;20182;-62
2023/05/09 05:46:19;;;;;;;0.00;0.00;;;15.90;99.90;;;;;;5111351;28;20171;-62
2023/05/09 05:48:45;;;;;;;0.28;0.28;;;16.00;99.90;;;;;;5111346;28;20168;-62
2023/05/09 05:51:10;;;;;;;0.00;0.00;;;16.10;99.90;;;;;;5111213;28;20175;-61
2023/05/09 05:53:36;;;;;;;0.00;0.00;;;16.20;99.90;;;;;;5111153;28;20170;-61
2023/05/09 05:56:01;;;;;;;0.00;0.00;;;16.30;99.90;;;;;;5110977;28;20352;-62
2023/05/09 05:58:27;;;;;;;0.00;0.00;;;16.40;99.90;;;;;;5111236;28;20175;-62
2023/05/09 06:00:52;;;;;;;0.00;0.00;;;16.40;99.90;;;;;;5111114;28;20163;-62
2023/05/09 06:03:18;;;;;;;0.00;0.00;;;16.50;99.90;;;;;;5111120;28;20232;-62
2023/05/09 06:05:45;;;;;;;0.00;0.00;;;16.50;99.90;;;;;;5111259;28;20266;-61
2023/05/09 06:08:10;;;;;;;0.00;0.00;;;16.60;99.90;;;;;;5111131;28;20178;-61
2023/05/09 06:10:36;;;;;;;0.00;0.00;;;16.60;99.90;;;;;;5111097;28;20175;-62
2023/05/09 06:13:01;;;;;;;0.13;0.13;;;16.60;99.90;;;;;;5111047;28;20254;-62
2023/05/09 06:15:27;;;;;;;0.00;0.00;;;16.70;99.90;;;;;;5111183;28;20195;-62
2023/05/09 06:17:53;;;;;;;0.05;0.05;;;16.70;99.90;;;;;;5094311;28;20215;-62
2023/05/09 06:20:18;;;;;;;0.08;0.08;;;16.70;99.90;;;;;;5100103;28;20522;-62
2023/05/09 06:22:44;;;;;;;0.00;0.00;;;16.70;99.90;;;;;;5115289;28;20186;-62
2023/05/09 06:25:10;;;;;;;0.00;0.00;;;16.80;99.90;;;;;;5114813;28;20556;-62
2023/05/09 06:27:35;;;;;;;0.03;0.03;;;16.70;99.90;;;;;;5113578;28;20212;-62
2023/05/09 06:30:00;;;;;;;0.00;0.00;;;16.80;99.90;;;;;;5114990;28;20176;-61
2023/05/09 06:32:26;;;;;;;0.00;0.00;;;16.80;99.90;;;;;;5115055;28;20186;-62
2023/05/09 06:34:51;;;;;;;0.00;0.00;;;16.90;99.90;;;;;;5114936;28;20167;-62
2023/05/09 06:37:17;;;;;;;0.00;0.00;;;16.90;99.90;;;;;;5114611;28;20318;-62
2023/05/09 06:39:43;;;;;;;0.00;0.00;;;17.00;99.90;;;;;;5114860;28;20172;-62
2023/05/09 06:42:08;;;;;;;0.05;0.05;;;17.20;99.90;;;;;;5114703;28;20172;-62
2023/05/09 06:44:34;;;;;;;0.10;0.10;;;17.30;99.90;;;;;;5114767;28;20724;-62
2023/05/09 06:47:00;;;;;;;0.00;0.00;;;17.40;99.90;;;;;;5114742;28;20179;-61
2023/05/09 06:49:26;;;;;;;0.00;0.00;;;17.50;99.90;;;;;;5114895;28;20176;-62
2023/05/09 06:51:51;;;;;;;0.00;0.00;;;17.60;99.90;;;;;;5114822;28;20244;-62
2023/05/09 06:54:17;;;;;;;0.00;0.00;;;17.60;99.90;;;;;;5114841;28;20699;-62
2023/05/09 06:56:42;;;;;;;0.30;0.10;;;17.70;99.90;;;;;;5114905;28;20215;-62
2023/05/09 06:59:12;;;;;;;0.00;0.00;;;17.90;99.90;;;;;;5114831;28;20250;-62
2023/05/09 07:01:40;;;;;;;0.00;0.00;;;18.00;99.90;;;;;;5114716;28;20160;-62
2023/05/09 07:04:06;;;;;;;0.00;0.00;;;18.00;99.90;;;;;;5114730;28;20183;-62
2023/05/09 07:06:32;;;;;;;0.00;0.00;;;18.10;99.90;;;;;;5114807;28;20175;-62
2023/05/09 07:08:57;;;;;;;0.00;0.00;;;18.10;99.90;;;;;;5114548;28;20167;-62
2023/05/09 07:11:23;;;;;;;0.50;0.50;;;18.10;99.90;;;;;;5114549;28;20176;-62
2023/05/09 07:13:48;;;;;;;0.00;0.00;;;18.20;99.90;;;;;;5114614;28;20170;-62
2023/05/09 07:16:14;;;;;;;0.03;0.03;;;18.10;99.90;;;;;;5109378;28;20199;-61
2023/05/09 07:18:40;;;;;;;0.00;0.00;;;18.20;99.90;;;;;;5094092;28;20176;-62
2023/05/09 07:21:06;;;;;;;0.00;0.00;;;18.30;99.90;;;;;;5105858;28;20182;-61
2023/05/09 07:23:31;;;;;;;0.00;0.00;;;18.40;99.90;;;;;;5114260;28;20319;-62
2023/05/09 07:25:58;;;;;;;0.00;0.00;;;18.50;99.90;;;;;;5114057;28;20262;-62
2023/05/09 07:28:24;;;;;;;0.00;0.00;;;18.70;99.90;;;;;;5113610;28;20234;-62
2023/05/09 07:30:50;;;;;;;0.95;0.93;;;18.90;99.90;;;;;;5114033;28;20574;-62
2023/05/09 07:33:16;;;;;;;0.00;0.00;;;19.20;99.90;;;;;;5114068;28;20638;-62
2023/05/09 07:35:41;;;;;;;0.00;0.00;;;19.40;99.90;;;;;;5114265;28;20171;-61
2023/05/09 07:38:07;;;;;;;0.00;0.00;;;19.60;99.90;;;;;;5114103;27;20603;-62
2023/05/09 07:40:35;;;;;;;0.00;0.00;;;20.00;99.90;;;;;;5114167;28;20176;-62
2023/05/09 07:43:00;;;;;;;0.10;0.10;;;20.30;99.90;;;;;;5113898;28;20650;-62
2023/05/09 07:45:26;;;;;;;0.00;0.00;;;20.70;99.90;;;;;;5113944;28;20225;-62
2023/05/09 07:47:51;;;;;;;0.00;0.00;;;21.00;99.90;;;;;;5113918;28;20217;-62
2023/05/09 07:50:17;;;;;;;0.00;0.00;;;21.20;99.90;;;;;;5112381;28;20175;-62
2023/05/09 07:52:43;;;;;;;0.20;0.20;;;21.50;99.90;;;;;;5113862;28;20713;-62
2023/05/09 07:55:08;;;;;;;0.00;0.00;;;21.70;99.90;;;;;;5113799;27;20266;-62
2023/05/09 07:57:34;;;;;;;0.00;0.00;;;21.90;99.90;;;;;;5113712;28;20214;-62
2023/05/09 07:59:59;;;;;;;0.03;0.03;;;22.00;99.90;;;;;;5113595;28;20175;-62
2023/05/09 08:02:25;;;;;;;0.10;0.10;;;22.00;99.90;;;;;;5113790;28;20172;-62
2023/05/09 08:04:50;;;;;;;0.00;0.00;;;22.00;99.90;;;;;;5113635;28;20629;-62
2023/05/09 08:07:16;;;;;;;0.05;0.05;;;22.20;99.90;;;;;;5113300;28;20197;-62
2023/05/09 08:09:41;;;;;;;0.00;0.00;;;22.40;99.90;;;;;;5113482;28;20191;-62
2023/05/09 08:12:07;;;;;;;0.00;0.00;;;22.40;99.90;;;;;;5113265;28;20212;-62
2023/05/09 08:14:32;;;;;;;0.00;0.00;;;22.30;99.90;;;;;;5112209;28;20262;-62
2023/05/09 08:16:58;;;;;;;0.00;0.00;;;22.30;99.90;;;;;;5102061;28;20238;-62
2023/05/09 08:19:24;;;;;;;0.30;0.30;;;22.10;99.90;;;;;;5092901;28;20173;-62
2023/05/09 08:21:51;;;;;;;0.00;0.00;;;21.90;99.90;;;;;;5111190;28;20186;-62
2023/05/09 08:24:16;;;;;;;0.00;0.00;;;21.90;99.90;;;;;;5112842;28;20238;-62
2023/05/09 08:26:43;;;;;;;0.15;0.15;;;21.90;99.90;;;;;;5113183;28;20576;-62
2023/05/09 08:29:08;;;;;;;0.00;0.00;;;22.10;99.90;;;;;;5113145;28;20586;-62
2023/05/09 08:31:34;;;;;;;0.00;0.00;;;22.50;99.90;;;;;;5113002;28;20210;-61
2023/05/09 08:33:59;;;;;;;1.17;0.55;;;23.10;99.90;;;;;;5112782;28;20203;-62
2023/05/09 08:36:25;;;;;;;0.00;0.00;;;23.60;99.90;;;;;;5112933;28;20596;-62
2023/05/09 08:38:51;;;;;;;0.00;0.00;;;24.10;99.90;;;;;;5112854;28;20175;-62
2023/05/09 08:41:16;;;;;;;0.00;0.00;;;24.40;99.90;;;;;;5112491;28;20171;-62
2023/05/09 08:43:43;;;;;;;0.00;0.00;;;24.40;99.90;;;;;;5112929;28;20171;-59
2023/05/09 08:46:10;;;;;;;0.00;0.00;;;24.50;99.90;;;;;;5094363;28;20180;-59
2023/05/09 08:48:38;;;;;;;0.00;0.00;;;24.50;99.70;;;;;;5112553;28;20575;-59
2023/05/09 08:51:05;;;;;;;0.10;0.10;;;24.60;99.10;;;;;;5112580;28;20214;-59
2023/05/09 08:53:32;;;;;;;0.43;0.20;;;24.90;99.40;;;;;;5112621;28;20575;-59
2023/05/09 08:56:00;;;;;;;0.00;0.00;;;25.30;99.40;;;;;;5112312;28;20232;-59
2023/05/09 08:58:25;;;;;;;0.00;0.00;;;25.90;97.90;;;;;;5112521;28;20697;-59
2023/05/09 09:00:52;;;;;;;0.00;0.00;;;26.20;96.10;;;;;;5112368;28;20250;-59
2023/05/09 09:03:18;;;;;;;0.10;0.10;;;26.10;95.90;;;;;;5112339;28;20178;-59
2023/05/09 09:05:45;;;;;;;0.00;0.00;;;25.90;95.20;;;;;;5112433;28;20179;-59
2023/05/09 09:08:11;;;;;;;0.00;0.00;;;25.70;95.60;;;;;;5112286;28;20167;-59
2023/05/09 09:10:41;;;;;;;0.00;0.00;;;25.60;96.30;;;;;;5112195;28;20224;-59
2023/05/09 09:13:08;;;;;;;0.03;0.03;;;25.70;95.40;;;;;;5112473;28;20175;-59
2023/05/09 09:15:35;;;;;;;0.00;0.00;;;25.50;95.40;;;;;;5112312;28;20266;-59
2023/05/09 09:18:10;;;;;;;0.15;0.15;;;25.40;95.00;;;;;;5087459;28;20303;-59
2023/05/09 09:21:04;;;;;;;0.00;0.00;;;25.30;95.80;;;;;;5087072;28;20179;-59
2023/05/09 09:23:31;;;;;;;0.00;0.00;;;25.30;96.10;;;;;;5112153;28;20231;-59
2023/05/09 09:25:58;;;;;;;0.00;0.00;;;25.40;95.80;;;;;;5111931;28;20521;-59
2023/05/09 09:28:24;;;;;;;0.00;0.00;;;25.30;94.70;;;;;;5112086;28;20314;-59
2023/05/09 09:30:50;;;;;;;0.00;0.00;;;25.30;95.20;;;;;;5111991;28;20254;-59
2023/05/09 09:33:23;;;;;;;0.00;0.00;;;25.40;94.30;;;;;;5111765;28;20202;-59
2023/05/09 09:35:50;;;;;;;0.00;0.00;;;25.40;94.20;;;;;;5111935;28;20175;-59
2023/05/09 09:38:20;;;;;;;0.00;0.00;;;25.40;94.00;;;;;;5111657;28;20216;-59
2023/05/09 09:40:53;;;;;;;0.00;0.00;;;25.50;94.30;;;;;;5112017;28;20254;-59
2023/05/09 09:43:19;;;;;;;0.00;0.00;;;25.50;92.90;;;;;;5111712;28;20267;-59
2023/05/09 09:45:50;;;;;;;0.00;0.00;;;25.50;92.50;;;;;;5112184;28;20171;-59
2023/05/09 09:48:15;;;;;;;0.00;0.00;;;25.30;92.50;;;;;;5111564;28;20190;-59
2023/05/09 09:50:41;;;;;;;0.00;0.00;;;25.10;93.40;;;;;;5111837;28;20171;-59
2023/05/09 09:53:06;;;;;;;0.10;0.10;;;24.70;93.40;;;;;;5111124;28;20182;-60
2023/05/09 09:55:33;;;;;;;0.00;0.00;;;24.50;94.60;;;;;;5111777;28;20648;-61
2023/05/09 09:57:59;;;;;;;0.00;0.00;;;24.60;95.20;;;;;;5111391;28;20219;-61
2023/05/09 10:00:26;;;;;;;0.00;0.00;;;24.60;95.30;;;;;;5111738;28;20180;-62
2023/05/09 10:02:53;;;;;;;0.05;0.05;;;24.70;95.90;;;;;;5111586;28;20274;-61
2023/05/09 10:05:20;;;;;;;0.10;0.10;;;24.80;95.90;;;;;;5111541;28;20622;-61
2023/05/09 10:07:51;;;;;;;0.00;0.00;;;24.90;95.30;;;;;;5111747;28;20164;-61
2023/05/09 10:10:17;;;;;;;0.00;0.00;;;24.90;94.60;;;;;;5111407;28;20541;-61
2023/05/09 10:12:44;;;;;;;0.10;0.10;;;24.70;94.50;;;;;;5111664;28;20172;-61
2023/05/09 10:15:11;;;;;;;0.00;0.00;;;24.70;94.50;;;;;;5111435;28;20175;-61
2023/05/09 10:17:36;;;;;;;0.00;0.00;;;24.70;94.50;;;;;;5094901;28;20357;-61
2023/05/09 10:20:04;;;;;;;0.00;0.00;;;24.60;94.40;;;;;;5094167;28;20254;-61
2023/05/09 10:22:33;;;;;;;0.00;0.00;;;24.60;94.30;;;;;;5111440;28;20180;-61
2023/05/09 10:25:11;;;;;;;0.00;0.00;;;24.40;94.50;;;;;;5111135;28;20231;-61
2023/05/09 10:27:40;;;;;;;0.00;0.00;;;24.30;94.90;;;;;;5111433;28;20180;-61
2023/05/09 10:30:21;;;;;;;0.00;0.00;;;24.40;95.10;;;;;;5111245;28;20236;-61
2023/05/09 10:32:51;;;;;;;0.00;0.00;;;24.40;94.40;;;;;;5111392;28;20179;-61
2023/05/09 10:35:18;;;;;;;0.10;0.10;;;24.50;94.50;;;;;;5111101;28;20176;-61
2023/05/09 10:37:47;;;;;;;0.00;0.00;;;24.60;94.40;;;;;;5111290;28;20280;-61
2023/05/09 10:40:14;;;;;;;0.10;0.10;;;24.70;94.30;;;;;;5111376;28;20175;-61
2023/05/09 10:42:43;;;;;;;0.00;0.00;;;24.90;93.60;;;;;;5111306;28;20695;-61
2023/05/09 10:45:11;;;;;;;0.00;0.00;;;24.90;93.10;;;;;;5111248;28;20183;-61
2023/05/09 10:47:38;;;;;;;0.00;0.00;;;25.00;93.10;;;;;;5111186;28;20266;-61
2023/05/09 10:50:06;;;;;;;0.00;0.00;;;25.20;93.20;;;;;;5111122;28;20186;-61
2023/05/09 10:52:35;;;;;;;0.00;0.00;;;25.30;93.10;;;;;;5111336;28;20591;-61
2023/05/09 10:55:02;;;;;;;0.00;0.00;;;25.60;92.90;;;;;;5111175;28;20250;-62
2023/05/09 10:57:29;;;;;;;0.00;0.00;;;25.80;91.00;;;;;;5111031;28;20678;-61
2023/05/09 10:59:56;;;;;;;0.10;0.10;;;25.90;90.50;;;;;;5111046;28;20193;-61
2023/05/09 11:02:28;;;;;;;0.00;0.00;;;26.00;90.40;;;;;;5111105;28;20167;-61
2023/05/09 11:05:16;;;;;;;0.00;0.00;;;26.10;90.60;;;;;;5113041;28;20225;-61
2023/05/09 11:07:42;;;;;;;0.00;0.00;;;26.10;89.00;;;;;;5114825;28;20181;-61
2023/05/09 11:10:17;;;;;;;0.00;0.00;;;25.90;87.90;;;;;;5114600;28;20520;-61
2023/05/09 11:12:59;;;;;;;0.00;0.00;;;25.70;88.80;;;;;;5114515;28;20633;-61
2023/05/09 11:15:26;;;;;;;0.00;0.00;;;25.70;90.00;;;;;;5114498;28;20660;-61
2023/05/09 11:18:06;;;;;;;0.00;0.00;;;25.80;89.20;;;;;;5095731;28;20631;-61
2023/05/09 11:20:41;;;;;;;0.00;0.00;;;25.80;88.00;;;;;;5101372;28;20522;-61
2023/05/09 11:23:09;;;;;;;0.00;0.00;;;25.90;88.80;;;;;;5114089;28;20175;-62
2023/05/09 11:25:34;;;;;;;0.00;0.00;;;26.00;87.70;;;;;;5114473;28;20249;-61
2023/05/09 11:28:00;;;;;;;0.00;0.00;;;26.20;87.40;;;;;;5114256;28;20187;-61
2023/05/09 11:30:40;;;;;;;0.00;0.00;;;26.10;85.60;;;;;;5114167;28;20183;-61
2023/05/09 11:33:21;;;;;;;0.00;0.00;;;25.90;85.50;;;;;;5114143;28;20163;-61
2023/05/09 11:36:07;;;;;;;0.00;0.00;;;25.80;88.80;;;;;;5114277;28;20182;-61
2023/05/09 11:38:40;;;;;;;0.00;0.00;;;25.50;88.40;;;;;;5113894;28;20191;-61
2023/05/09 11:41:06;;;;;;;0.00;0.00;;;25.60;87.40;;;;;;5112757;28;20254;-61
2023/05/09 11:43:33;;;;;;;0.00;0.00;;;25.70;86.90;;;;;;5114065;28;20630;-61
2023/05/09 11:45:59;;;;;;;0.00;0.00;;;25.90;87.30;;;;;;5113696;28;20183;-61
2023/05/09 11:48:25;;;;;;;0.00;0.00;;;26.10;86.00;;;;;;5113883;28;20165;-61
2023/05/09 11:50:50;;;;;;;0.00;0.00;;;26.20;84.70;;;;;;5113867;28;20191;-61
2023/05/09 11:53:16;;;;;;;0.22;0.20;;;26.20;84.90;;;;;;5113682;28;20168;-61
2023/05/09 11:55:41;;;;;;;0.00;0.00;;;26.20;83.80;;;;;;5113816;28;20584;-61
2023/05/09 11:58:08;;;;;;;0.00;0.00;;;26.20;82.20;;;;;;5113543;28;20694;-61
2023/05/09 12:00:36;;;;;;;0.00;0.00;;;26.10;82.70;;;;;;5113709;28;20176;-61
2023/05/09 12:03:04;;;;;;;0.00;0.00;;;26.20;83.00;;;;;;5113618;28;20256;-61
2023/05/09 12:05:30;;;;;;;0.00;0.00;;;26.30;82.90;;;;;;5113671;28;20181;-61
2023/05/09 12:08:03;;;;;;;0.00;0.00;;;26.30;81.90;;;;;;5113352;28;20263;-61
2023/05/09 12:10:28;;;;;;;0.00;0.00;;;26.30;81.10;;;;;;5113596;28;20515;-61
2023/05/09 12:12:55;;;;;;;0.00;0.00;;;26.30;81.40;;;;;;5113346;28;20179;-61
2023/05/09 12:15:20;;;;;;;0.00;0.00;;;26.40;80.70;;;;;;5112916;28;20174;-61
2023/05/09 12:17:46;;;;;;;0.00;0.00;;;26.30;81.50;;;;;;5095350;28;20208;-61
2023/05/09 12:20:12;;;;;;;0.00;0.00;;;26.10;81.50;;;;;;5097234;28;20190;-61
2023/05/09 12:22:42;;;;;;;0.00;0.00;;;26.20;83.00;;;;;;5113143;28;20521;-61
2023/05/09 12:25:10;;;;;;;0.00;0.00;;;26.40;82.70;;;;;;5112926;28;20586;-62
2023/05/09 12:27:37;;;;;;;0.00;0.00;;;26.60;80.60;;;;;;5113098;28;20209;-61
2023/05/09 12:30:08;;;;;;;0.00;0.00;;;26.60;79.40;;;;;;5113026;28;20168;-61
2023/05/09 12:32:36;;;;;;;0.00;0.00;;;26.50;78.90;;;;;;5113099;28;20187;-61
2023/05/09 12:35:02;;;;;;;0.00;0.00;;;26.40;78.60;;;;;;5112984;28;20175;-62
2023/05/09 12:37:29;;;;;;;0.00;0.00;;;26.30;79.20;;;;;;5112873;28;20673;-61
2023/05/09 12:40:14;;;;;;;0.00;0.00;;;26.20;79.40;;;;;;5112898;28;20172;-61
2023/05/09 12:42:43;;;;;;;0.10;0.10;;;26.00;78.90;;;;;;5112776;28;20255;-61
2023/05/09 12:45:10;;;;;;;0.00;0.00;;;25.70;80.20;;;;;;5112630;28;20653;-61
2023/05/09 12:47:40;;;;;;;0.10;0.10;;;25.60;82.00;;;;;;5112562;28;20172;-61